Meteorological Aerodrome Report (METAR)

METAR

Data at: 1635 UTC 09 Apr 2020

METAR for:NVSC (Sola/Vanua Lava Arpt, --, NV)
Text:NVSC 091500Z 05006KT 9999 BKN020 27/25 Q1011
Temperature: 27.0°C ( 81°F)
Dewpoint: 25.0°C ( 77°F) [RH = 89%]
Pressure (altimeter):29.85 inches Hg (1011.0 mb)
Winds:from the NE (50 degrees) at 7 MPH (6 knots; 3.1 m/s)
Visibility:6 or more sm (10+ km)
Ceiling:2000 feet AGL
Clouds: broken clouds at 2000 feet AGL

METAR

Data at: 1635 UTC 09 Apr 2020

METAR for:NVSG (Longana Arpt, --, NV)
Text:NVSG 091600Z NI

METAR

Data at: 1635 UTC 09 Apr 2020

METAR for:NVSS (Santo/Pekoa Intl, --, NV)
Text:NVSS 091200Z 12007KT 9999 SCT020 BKN040 27/24 Q1013
Temperature: 27.0°C ( 81°F)
Dewpoint: 24.0°C ( 75°F) [RH = 84%]
Pressure (altimeter):29.91 inches Hg (1013.0 mb)
Winds:from the ESE (120 degrees) at 8 MPH (7 knots; 3.6 m/s)
Visibility:6 or more sm (10+ km)
Ceiling:4000 feet AGL
Clouds: scattered clouds at 2000 feet AGL, broken clouds at 4000 feet AGL

METAR

Data at: 1635 UTC 09 Apr 2020

METAR for:NVSL (Malekula/Lamap, --, NV)
Text:No data found

METAR

Data at: 1635 UTC 09 Apr 2020

METAR for:NVSP (Norsup Arpt, --, NV)
Text:No data found

METAR

Data at: 1635 UTC 09 Apr 2020

METAR for:NVVV (Efate/Bauerfield Int, --, NV)
Text:NVVV 091600Z 14002KT 9999 FEW020 BKN040 23/21 Q1013
Temperature: 23.0°C ( 73°F)
Dewpoint: 21.0°C ( 70°F) [RH = 89%]
Pressure (altimeter):29.91 inches Hg (1013.0 mb)
Winds:from the SE (140 degrees) at 2 MPH (2 knots; 1.0 m/s)
Visibility:6 or more sm (10+ km)
Ceiling:4000 feet AGL
Clouds: few clouds at 2000 feet AGL, broken clouds at 4000 feet AGL

METAR

Data at: 1635 UTC 09 Apr 2020

METAR for:NVVW (Tanna Arpt, --, NV)
Text:NVVW 091200Z 00000KT 9999 FEW025 22/21 Q1015
Temperature: 22.0°C ( 72°F)
Dewpoint: 21.0°C ( 70°F) [RH = 94%]
Pressure (altimeter):29.97 inches Hg (1015.0 mb)
Winds:calm
Visibility:6 or more sm (10+ km)
Ceiling:at least 12,000 feet AGL
Clouds: few clouds at 2500 feet AGL

METAR

Data at: 1635 UTC 09 Apr 2020

METAR for:NVVA (Aneityum/Mystery Isl, --, NV)
Text:NVVA 091500Z 13003KT 9999 FEW025 21/18 Q1014
Temperature: 21.0°C ( 70°F)
Dewpoint: 18.0°C ( 64°F) [RH = 83%]
Pressure (altimeter):29.94 inches Hg (1014.0 mb)
Winds:from the SE (130 degrees) at 3 MPH (3 knots; 1.5 m/s)
Visibility:6 or more sm (10+ km)
Ceiling:at least 12,000 feet AGL
Clouds: few clouds at 2500 feet AGL

METAR

Data at: 1635 UTC 09 Apr 2020

NVVV 091600Z 14002KT 9999 FEW020 BKN040 23/21 Q1013
NVSC 091500Z 05006KT 9999 BKN020 27/25 Q1011
NVSG 091600Z NI
NVSS 091200Z 12007KT 9999 SCT020 BKN040 27/24 Q1013
No Data available for NVSL
No Data available for NVSP
NVVW 091200Z 00000KT 9999 FEW025 22/21 Q1015
NVVA 091500Z 13003KT 9999 FEW025 21/18 Q1014